Time;durP1;ratioP1;P1;durP2;ratioP2;P2;SDS_P1;SDS_P2;PMS_P1;PMS_P2;Temp;Humidity;BMP_temperature;BMP_pressure;BME280_temperature;BME280_humidity;BME280_pressure;Samples;Min_cycle;Max_cycle;Signal;HPM_P1;HPM_P2
2021/09/28 00:01:51;;;;;;;0.13;0.13;;;13.90;99.90;;;;;;5011045;28;20409;-75
2021/09/28 00:04:17;;;;;;;1.02;0.20;;;13.90;99.90;;;;;;5010398;28;20022;-75
2021/09/28 00:06:42;;;;;;;0.20;0.20;;;13.90;99.90;;;;;;5027604;28;20037;-74
2021/09/28 00:09:08;;;;;;;0.10;0.10;;;13.80;99.90;;;;;;5012271;28;20041;-75
2021/09/28 00:11:34;;;;;;;0.20;0.20;;;13.80;99.90;;;;;;5010756;28;20374;-75
2021/09/28 00:14:00;;;;;;;0.20;0.20;;;13.80;99.90;;;;;;5016329;28;20160;-75
2021/09/28 00:16:30;;;;;;;0.10;0.10;;;13.80;99.90;;;;;;5030873;28;20021;-75
2021/09/28 00:18:58;;;;;;;0.20;0.20;;;13.80;99.90;;;;;;5015991;28;20018;-75
2021/09/28 00:21:24;;;;;;;0.13;0.13;;;13.80;99.90;;;;;;5015562;28;20080;-75
2021/09/28 00:23:50;;;;;;;0.10;0.10;;;13.80;99.90;;;;;;5015928;28;20030;-75
2021/09/28 00:26:15;;;;;;;0.10;0.10;;;13.80;99.90;;;;;;5015561;28;20097;-75
2021/09/28 00:28:41;;;;;;;0.20;0.20;;;13.80;99.90;;;;;;5015680;28;20105;-75
2021/09/28 00:31:07;;;;;;;0.10;0.10;;;13.80;99.90;;;;;;5015967;28;20022;-75
2021/09/28 00:33:32;;;;;;;0.10;0.10;;;13.70;99.90;;;;;;5015351;28;20105;-75
2021/09/28 00:35:58;;;;;;;0.20;0.20;;;13.70;99.90;;;;;;5014771;28;20429;-75
2021/09/28 00:38:24;;;;;;;0.20;0.20;;;13.70;99.90;;;;;;5013752;28;20088;-77
2021/09/28 00:40:50;;;;;;;0.10;0.10;;;13.70;99.90;;;;;;5014702;28;20060;-77
2021/09/28 00:43:16;;;;;;;1.17;0.20;;;13.70;99.90;;;;;;5016026;28;20472;-76
2021/09/28 00:45:41;;;;;;;0.10;0.10;;;13.70;99.90;;;;;;5016019;28;20022;-76
2021/09/28 00:48:07;;;;;;;0.10;0.10;;;13.70;99.90;;;;;;5015862;28;20072;-76
2021/09/28 00:50:33;;;;;;;0.20;0.20;;;13.70;99.90;;;;;;5015152;28;20022;-76
2021/09/28 00:52:59;;;;;;;0.10;0.10;;;13.70;99.90;;;;;;5015579;28;20022;-76
2021/09/28 00:55:27;;;;;;;0.10;0.10;;;13.70;99.90;;;;;;5015013;28;20029;-76
2021/09/28 00:57:58;;;;;;;0.10;0.10;;;13.70;99.90;;;;;;5015517;28;20104;-76
2021/09/28 01:00:24;;;;;;;0.20;0.20;;;13.70;99.90;;;;;;5014953;28;20103;-76
2021/09/28 01:02:52;;;;;;;0.10;0.10;;;13.70;99.90;;;;;;5015849;28;20018;-76
2021/09/28 01:05:17;;;;;;;0.10;0.10;;;13.60;99.90;;;;;;5014783;28;20014;-76
2021/09/28 01:07:43;;;;;;;0.20;0.20;;;13.60;99.90;;;;;;5015576;28;20021;-76
2021/09/28 01:10:09;;;;;;;0.10;0.10;;;13.60;99.90;;;;;;5014444;28;20083;-76
2021/09/28 01:12:34;;;;;;;0.10;0.10;;;13.60;99.90;;;;;;5014713;28;20482;-76
2021/09/28 01:15:00;;;;;;;0.28;0.20;;;13.60;99.90;;;;;;5015527;28;20409;-76
2021/09/28 01:17:26;;;;;;;0.30;0.20;;;13.60;99.90;;;;;;5014272;28;20018;-76
2021/09/28 01:19:52;;;;;;;0.10;0.10;;;13.60;99.90;;;;;;5015149;28;20048;-76
2021/09/28 01:22:18;;;;;;;0.10;0.10;;;13.60;99.90;;;;;;5014520;28;20453;-75
2021/09/28 01:24:46;;;;;;;0.10;0.10;;;13.60;99.90;;;;;;5015289;28;20030;-75
2021/09/28 01:27:12;;;;;;;0.10;0.10;;;13.60;99.90;;;;;;5030316;28;20080;-77
2021/09/28 01:29:38;;;;;;;0.10;0.10;;;13.60;99.90;;;;;;5014413;28;20056;-76
2021/09/28 01:32:04;;;;;;;0.10;0.10;;;13.60;99.90;;;;;;5014907;28;20042;-77
2021/09/28 01:34:30;;;;;;;0.10;0.10;;;13.60;99.90;;;;;;5014313;28;20100;-77
2021/09/28 01:36:56;;;;;;;0.10;0.10;;;13.60;99.90;;;;;;5014947;28;20068;-77
2021/09/28 01:39:22;;;;;;;0.10;0.10;;;13.60;99.90;;;;;;5013883;28;20052;-78
2021/09/28 01:41:49;;;;;;;0.10;0.10;;;13.60;99.90;;;;;;5014822;28;20040;-77
2021/09/28 01:44:17;;;;;;;0.10;0.10;;;13.50;99.90;;;;;;5014633;28;20026;-77
2021/09/28 01:46:45;;;;;;;0.15;0.15;;;13.50;99.90;;;;;;5014759;28;20021;-75
2021/09/28 01:49:13;;;;;;;0.20;0.20;;;13.50;99.90;;;;;;5025300;28;20026;-75
2021/09/28 01:51:40;;;;;;;0.10;0.10;;;13.50;99.90;;;;;;5049067;28;20115;-76
2021/09/28 01:54:07;;;;;;;0.10;0.10;;;13.50;99.90;;;;;;5034335;28;20017;-75
2021/09/28 01:56:33;;;;;;;0.10;0.10;;;13.50;99.90;;;;;;5033683;28;20017;-75
2021/09/28 01:59:00;;;;;;;0.10;0.10;;;13.50;99.90;;;;;;5034614;28;20076;-76
2021/09/28 02:01:27;;;;;;;0.10;0.10;;;13.40;99.90;;;;;;5033497;28;20021;-76
2021/09/28 02:03:53;;;;;;;0.10;0.10;;;13.40;99.90;;;;;;5034412;28;20087;-77
2021/09/28 02:06:21;;;;;;;0.10;0.10;;;13.40;99.90;;;;;;5032116;28;20021;-75
2021/09/28 02:08:47;;;;;;;0.25;0.20;;;13.40;99.90;;;;;;5032941;28;20021;-76
2021/09/28 02:11:13;;;;;;;0.10;0.10;;;13.40;99.90;;;;;;5034035;28;20013;-76
2021/09/28 02:13:39;;;;;;;0.17;0.17;;;13.40;99.90;;;;;;5033345;28;20427;-76
2021/09/28 02:16:05;;;;;;;0.15;0.15;;;13.40;99.90;;;;;;5033714;28;20029;-76
2021/09/28 02:18:31;;;;;;;0.15;0.15;;;13.40;99.90;;;;;;5033232;28;20021;-76
2021/09/28 02:20:57;;;;;;;0.10;0.10;;;13.40;99.90;;;;;;5032481;28;20104;-76
2021/09/28 02:23:22;;;;;;;0.20;0.20;;;13.30;99.90;;;;;;5048159;28;20123;-76
2021/09/28 02:25:48;;;;;;;0.10;0.10;;;13.30;99.90;;;;;;5033677;28;20033;-76
2021/09/28 02:28:14;;;;;;;0.10;0.10;;;13.40;99.90;;;;;;5032350;28;20017;-76
2021/09/28 02:30:40;;;;;;;0.10;0.10;;;13.40;99.90;;;;;;5032773;28;20033;-76
2021/09/28 02:33:06;;;;;;;0.20;0.20;;;13.30;99.90;;;;;;5033295;28;20131;-76
2021/09/28 02:35:31;;;;;;;0.10;0.10;;;13.30;99.90;;;;;;5031976;28;20469;-75
2021/09/28 02:37:58;;;;;;;0.20;0.20;;;13.30;99.90;;;;;;5032130;28;20464;-77
2021/09/28 02:40:25;;;;;;;0.10;0.10;;;13.30;99.90;;;;;;5031040;28;20497;-77
2021/09/28 02:42:51;;;;;;;0.22;0.20;;;13.20;99.90;;;;;;5033022;28;20021;-76
2021/09/28 02:45:16;;;;;;;0.10;0.10;;;13.20;99.90;;;;;;5031967;28;20458;-76
2021/09/28 02:47:42;;;;;;;0.20;0.20;;;13.20;99.90;;;;;;5032390;28;20017;-77
2021/09/28 02:50:08;;;;;;;0.10;0.10;;;13.20;99.90;;;;;;5032131;28;20374;-76
2021/09/28 02:52:34;;;;;;;0.10;0.10;;;13.20;99.90;;;;;;5032593;28;20021;-77
2021/09/28 02:54:59;;;;;;;0.10;0.10;;;13.20;99.90;;;;;;5033166;28;20025;-77
2021/09/28 02:57:25;;;;;;;0.10;0.10;;;13.20;99.90;;;;;;5032173;28;20056;-76
2021/09/28 02:59:51;;;;;;;0.15;0.15;;;13.20;99.90;;;;;;5033002;28;20088;-77
2021/09/28 03:02:16;;;;;;;0.15;0.15;;;13.20;99.90;;;;;;5033016;28;20048;-77
2021/09/28 03:04:42;;;;;;;0.20;0.20;;;13.10;99.90;;;;;;5031070;28;20029;-77
2021/09/28 03:07:08;;;;;;;0.10;0.10;;;13.10;99.90;;;;;;5033629;28;20045;-76
2021/09/28 03:09:33;;;;;;;0.20;0.20;;;13.10;99.90;;;;;;5032304;28;20025;-76
2021/09/28 03:11:59;;;;;;;0.10;0.10;;;13.10;99.90;;;;;;5032815;28;20057;-76
2021/09/28 03:14:27;;;;;;;0.10;0.10;;;13.10;99.90;;;;;;5032295;28;20408;-76
2021/09/28 03:16:53;;;;;;;0.10;0.10;;;13.10;99.90;;;;;;5031408;28;20358;-76
2021/09/28 03:19:20;;;;;;;0.10;0.10;;;13.10;99.90;;;;;;5032783;28;20026;-76
2021/09/28 03:21:46;;;;;;;0.30;0.20;;;13.00;99.90;;;;;;5032087;28;20048;-77
2021/09/28 03:24:12;;;;;;;0.10;0.10;;;13.10;99.90;;;;;;5031264;28;20453;-75
2021/09/28 03:26:38;;;;;;;0.20;0.10;;;13.00;99.90;;;;;;5031722;28;20028;-76
2021/09/28 03:29:04;;;;;;;0.20;0.20;;;13.00;99.90;;;;;;5032419;28;20416;-76
2021/09/28 03:31:30;;;;;;;0.10;0.10;;;13.10;99.90;;;;;;5031878;28;20083;-75
2021/09/28 03:33:55;;;;;;;0.10;0.10;;;13.00;99.90;;;;;;5032430;28;20017;-75
2021/09/28 03:36:21;;;;;;;0.10;0.10;;;13.00;99.90;;;;;;5032135;28;20017;-76
2021/09/28 03:38:47;;;;;;;0.28;0.10;;;13.00;99.90;;;;;;5031440;28;20343;-76
2021/09/28 03:41:13;;;;;;;0.17;0.17;;;13.10;99.90;;;;;;5032101;28;20037;-76
2021/09/28 03:43:39;;;;;;;0.10;0.10;;;13.00;99.90;;;;;;5030463;28;20128;-76
2021/09/28 03:46:05;;;;;;;0.10;0.10;;;13.00;99.90;;;;;;5031662;28;20136;-76
2021/09/28 03:48:31;;;;;;;0.20;0.20;;;13.00;99.90;;;;;;5021802;28;20609;-75
2021/09/28 03:50:56;;;;;;;0.10;0.10;;;13.00;99.90;;;;;;5034283;28;20045;-75
2021/09/28 03:53:22;;;;;;;0.10;0.10;;;13.00;99.90;;;;;;5017051;28;20037;-78
2021/09/28 03:55:49;;;;;;;0.10;0.10;;;13.00;99.90;;;;;;5022794;28;20072;-76
2021/09/28 03:58:15;;;;;;;0.13;0.10;;;13.00;99.90;;;;;;5015592;28;20054;-76
2021/09/28 04:00:42;;;;;;;0.10;0.10;;;13.00;99.90;;;;;;5020825;28;20046;-75
2021/09/28 04:03:08;;;;;;;0.13;0.13;;;13.00;99.90;;;;;;5015573;28;20437;-76
2021/09/28 04:05:34;;;;;;;0.10;0.10;;;13.00;99.90;;;;;;5017902;28;20026;-76
2021/09/28 04:08:00;;;;;;;0.10;0.10;;;12.90;99.90;;;;;;5019344;28;20156;-76
2021/09/28 04:10:26;;;;;;;0.10;0.10;;;12.90;99.90;;;;;;5020058;28;20018;-74
2021/09/28 04:12:52;;;;;;;0.20;0.20;;;12.90;99.90;;;;;;5014615;28;20096;-76
2021/09/28 04:15:21;;;;;;;0.10;0.10;;;12.90;99.90;;;;;;5031968;28;20013;-76
2021/09/28 04:17:47;;;;;;;0.20;0.20;;;12.90;99.90;;;;;;5031373;28;20222;-76
2021/09/28 04:20:13;;;;;;;0.10;0.10;;;12.90;99.90;;;;;;5047162;28;20022;-76
2021/09/28 04:22:39;;;;;;;0.20;0.20;;;12.90;99.90;;;;;;5031147;28;20124;-80
2021/09/28 04:25:06;;;;;;;0.20;0.20;;;12.90;99.90;;;;;;5011406;28;20101;-78
2021/09/28 04:27:31;;;;;;;0.30;0.20;;;12.80;99.90;;;;;;5011408;28;20034;-79
2021/09/28 04:29:57;;;;;;;0.10;0.10;;;12.80;99.90;;;;;;5009880;28;20034;-81
2021/09/28 04:32:23;;;;;;;0.10;0.10;;;12.80;99.90;;;;;;5018431;28;20025;-82
2021/09/28 04:34:48;;;;;;;0.20;0.20;;;12.80;99.90;;;;;;5029297;28;20025;-80
2021/09/28 04:37:15;;;;;;;0.10;0.10;;;12.80;99.90;;;;;;5028805;28;20040;-79
2021/09/28 04:39:41;;;;;;;0.20;0.20;;;12.70;99.90;;;;;;5027084;28;20046;-81
2021/09/28 04:42:07;;;;;;;0.20;0.20;;;12.80;99.90;;;;;;5030217;28;20340;-80
2021/09/28 04:44:33;;;;;;;0.10;0.10;;;12.80;99.90;;;;;;5028928;28;20022;-81
2021/09/28 04:46:58;;;;;;;0.10;0.10;;;12.80;99.90;;;;;;5029541;28;20017;-80
2021/09/28 04:49:24;;;;;;;0.22;0.22;;;12.80;99.90;;;;;;5029175;28;20219;-82
2021/09/28 04:51:50;;;;;;;0.20;0.20;;;12.80;99.90;;;;;;5024577;28;20030;-79
2021/09/28 04:54:15;;;;;;;0.10;0.10;;;12.80;99.90;;;;;;5009472;28;20025;-82
2021/09/28 04:56:41;;;;;;;0.10;0.10;;;12.80;99.90;;;;;;5016800;28;20337;-80
2021/09/28 04:59:07;;;;;;;0.20;0.20;;;12.70;99.90;;;;;;5015024;28;20032;-80
2021/09/28 05:01:32;;;;;;;0.20;0.20;;;12.70;99.90;;;;;;5017691;28;20030;-79
2021/09/28 05:03:58;;;;;;;0.30;0.20;;;12.70;99.90;;;;;;5022702;28;20425;-80
2021/09/28 05:06:24;;;;;;;0.20;0.20;;;12.70;99.90;;;;;;5041048;28;20049;-80
2021/09/28 05:08:51;;;;;;;0.20;0.20;;;12.70;99.90;;;;;;5019928;28;20030;-80
2021/09/28 05:11:17;;;;;;;0.20;0.20;;;12.70;99.90;;;;;;5023388;28;20036;-73
2021/09/28 05:13:43;;;;;;;0.20;0.20;;;12.70;99.90;;;;;;5029537;28;20022;-74
2021/09/28 05:16:09;;;;;;;0.10;0.10;;;12.70;99.90;;;;;;5033289;28;20553;-74
2021/09/28 05:18:35;;;;;;;0.20;0.20;;;12.70;99.90;;;;;;5034649;28;20032;-74
2021/09/28 05:21:01;;;;;;;0.10;0.10;;;12.70;99.90;;;;;;5034559;28;20069;-75
2021/09/28 05:23:27;;;;;;;0.15;0.15;;;12.70;99.90;;;;;;5033419;28;20026;-74
2021/09/28 05:25:54;;;;;;;0.55;0.30;;;12.70;99.90;;;;;;5034088;28;20025;-74
2021/09/28 05:28:20;;;;;;;0.22;0.22;;;12.60;99.90;;;;;;5034590;28;20049;-74
2021/09/28 05:30:46;;;;;;;0.28;0.28;;;12.70;99.90;;;;;;5033740;28;20359;-74
2021/09/28 05:33:13;;;;;;;0.47;0.38;;;12.60;99.90;;;;;;5034523;28;20049;-75
2021/09/28 05:35:39;;;;;;;0.40;0.40;;;12.60;99.90;;;;;;5033827;28;20022;-75
2021/09/28 05:38:05;;;;;;;0.70;0.45;;;12.60;99.90;;;;;;5034471;28;20028;-73
2021/09/28 05:40:31;;;;;;;0.40;0.40;;;12.60;99.90;;;;;;5033798;28;20049;-74
2021/09/28 05:42:57;;;;;;;0.43;0.38;;;12.60;99.90;;;;;;5032512;28;20124;-74
2021/09/28 05:45:22;;;;;;;0.80;0.50;;;12.60;99.90;;;;;;5034070;28;20510;-75
2021/09/28 05:47:48;;;;;;;0.98;0.50;;;12.60;99.90;;;;;;5033267;28;20481;-75
2021/09/28 05:50:15;;;;;;;0.88;0.50;;;12.60;99.90;;;;;;5034373;28;20060;-75
2021/09/28 05:52:43;;;;;;;1.17;0.60;;;12.60;99.90;;;;;;5033269;28;20021;-74
2021/09/28 05:55:09;;;;;;;2.70;0.80;;;12.60;99.90;;;;;;5032958;28;20450;-75
2021/09/28 05:57:35;;;;;;;0.93;0.60;;;12.60;99.90;;;;;;5033428;28;20021;-75
2021/09/28 06:00:00;;;;;;;3.70;0.77;;;12.60;99.90;;;;;;5034022;28;20036;-75
2021/09/28 06:02:26;;;;;;;1.35;0.80;;;12.60;99.90;;;;;;5032874;28;20022;-74
2021/09/28 06:04:52;;;;;;;2.05;0.80;;;12.60;99.90;;;;;;5033421;28;20465;-75
2021/09/28 06:07:20;;;;;;;2.33;0.85;;;12.60;99.90;;;;;;5032736;28;20112;-75
2021/09/28 06:09:46;;;;;;;1.63;0.90;;;12.60;99.90;;;;;;5030875;28;20025;-75
2021/09/28 06:12:12;;;;;;;4.65;1.02;;;12.60;99.90;;;;;;5033740;28;20144;-74
2021/09/28 06:14:38;;;;;;;2.17;0.93;;;12.60;99.90;;;;;;5033168;28;20056;-75
2021/09/28 06:17:04;;;;;;;3.78;1.33;;;12.60;99.90;;;;;;5032382;28;20021;-74
2021/09/28 06:19:30;;;;;;;3.95;1.30;;;12.60;99.90;;;;;;5033540;28;20056;-74
2021/09/28 06:21:56;;;;;;;6.03;1.30;;;12.60;99.90;;;;;;5031597;28;20471;-74
2021/09/28 06:24:23;;;;;;;4.82;1.20;;;12.70;99.90;;;;;;5032291;28;20024;-74
2021/09/28 06:26:49;;;;;;;7.72;1.35;;;12.60;99.90;;;;;;5031645;28;20053;-75
2021/09/28 06:29:16;;;;;;;3.80;1.15;;;12.70;99.90;;;;;;5032141;28;20121;-75
2021/09/28 06:31:42;;;;;;;3.55;1.45;;;12.70;99.90;;;;;;5033060;28;20060;-74
2021/09/28 06:34:09;;;;;;;6.82;1.38;;;12.70;99.90;;;;;;5033334;28;20472;-75
2021/09/28 06:36:35;;;;;;;4.07;1.30;;;12.70;99.90;;;;;;5031957;28;20028;-75
2021/09/28 06:39:01;;;;;;;6.78;1.75;;;12.70;99.90;;;;;;5032874;28;20041;-74
2021/09/28 06:41:27;;;;;;;2.72;1.50;;;12.80;99.90;;;;;;5031779;28;20377;-74
2021/09/28 06:43:54;;;;;;;3.88;1.55;;;12.80;99.90;;;;;;5032651;28;20112;-75
2021/09/28 06:46:20;;;;;;;3.33;1.48;;;12.70;99.90;;;;;;5033161;28;20028;-75
2021/09/28 06:48:46;;;;;;;5.22;1.60;;;12.80;99.90;;;;;;5032218;28;20041;-74
2021/09/28 06:51:12;;;;;;;4.25;1.58;;;12.80;99.90;;;;;;5031722;28;20150;-75
2021/09/28 06:53:38;;;;;;;7.43;1.60;;;12.90;99.90;;;;;;5032695;28;20029;-75
2021/09/28 06:56:04;;;;;;;9.38;1.88;;;12.90;99.90;;;;;;5032986;28;20491;-75
2021/09/28 06:58:30;;;;;;;2.45;1.17;;;12.90;99.90;;;;;;5032671;28;20033;-75
2021/09/28 07:00:55;;;;;;;5.50;1.27;;;12.90;99.90;;;;;;5032248;28;20037;-74
2021/09/28 07:03:21;;;;;;;5.97;1.80;;;13.00;99.90;;;;;;5031779;28;20029;-75
2021/09/28 07:05:48;;;;;;;10.55;1.83;;;12.90;99.90;;;;;;5030900;28;20021;-75
2021/09/28 07:08:13;;;;;;;6.90;1.42;;;12.90;99.90;;;;;;5031485;28;20024;-74
2021/09/28 07:10:41;;;;;;;6.88;1.90;;;13.00;99.90;;;;;;5031230;28;20017;-74
2021/09/28 07:13:07;;;;;;;7.40;1.50;;;13.00;99.90;;;;;;5032652;28;20116;-74
2021/09/28 07:15:32;;;;;;;5.90;2.08;;;13.00;99.90;;;;;;5032957;28;20032;-74
2021/09/28 07:17:58;;;;;;;9.68;1.65;;;13.00;99.90;;;;;;5030277;28;20112;-75
2021/09/28 07:20:24;;;;;;;6.30;2.05;;;13.00;99.90;;;;;;5032421;28;20044;-75
2021/09/28 07:22:50;;;;;;;8.48;2.13;;;13.00;99.90;;;;;;5030558;28;20029;-75
2021/09/28 07:25:16;;;;;;;6.70;2.03;;;13.10;99.90;;;;;;5031459;28;20545;-75
2021/09/28 07:27:42;;;;;;;7.72;2.22;;;13.10;99.90;;;;;;5030568;28;20377;-74
2021/09/28 07:30:08;;;;;;;11.38;2.10;;;13.10;99.90;;;;;;5032398;28;20041;-75
2021/09/28 07:32:34;;;;;;;5.47;2.72;;;13.20;99.90;;;;;;5032175;28;20022;-74
2021/09/28 07:35:00;;;;;;;5.80;2.40;;;13.20;99.90;;;;;;5031669;28;20025;-74
2021/09/28 07:37:29;;;;;;;7.30;1.90;;;13.20;99.90;;;;;;5032037;28;20026;-74
2021/09/28 07:39:57;;;;;;;5.40;2.03;;;13.30;99.90;;;;;;5030057;28;20198;-74
2021/09/28 07:42:24;;;;;;;6.43;2.38;;;13.30;99.90;;;;;;5031014;28;20059;-73
2021/09/28 07:44:53;;;;;;;7.50;2.50;;;13.30;99.90;;;;;;5030040;28;20116;-74
2021/09/28 07:47:19;;;;;;;7.90;2.15;;;13.40;99.90;;;;;;5030799;28;20470;-74
2021/09/28 07:49:45;;;;;;;7.22;2.33;;;13.40;99.90;;;;;;5030168;28;20071;-74
2021/09/28 07:52:11;;;;;;;11.52;2.53;;;13.40;99.90;;;;;;5032096;28;20109;-75
2021/09/28 07:54:38;;;;;;;6.13;2.47;;;13.50;99.90;;;;;;5031824;28;20028;-74
2021/09/28 07:57:05;;;;;;;7.10;2.67;;;13.50;99.90;;;;;;5031435;28;20022;-75
2021/09/28 07:59:31;;;;;;;2.90;1.80;;;13.50;99.90;;;;;;5032202;28;20124;-74
2021/09/28 08:01:56;;;;;;;9.20;2.53;;;13.60;99.90;;;;;;5030046;28;20537;-75
2021/09/28 08:04:22;;;;;;;10.85;2.88;;;13.60;99.90;;;;;;5031986;28;20121;-75
2021/09/28 08:06:48;;;;;;;7.88;2.35;;;13.60;99.90;;;;;;5031244;28;20395;-75
2021/09/28 08:09:15;;;;;;;7.28;2.65;;;13.60;99.90;;;;;;5032111;28;20032;-75
2021/09/28 08:11:41;;;;;;;5.28;2.78;;;13.70;99.90;;;;;;5031734;28;20025;-75
2021/09/28 08:14:07;;;;;;;14.98;4.10;;;13.70;99.90;;;;;;5031255;28;20033;-74
2021/09/28 08:16:34;;;;;;;8.90;3.90;;;13.70;99.90;;;;;;5030449;28;20319;-74
2021/09/28 08:19:00;;;;;;;13.27;3.35;;;13.80;99.90;;;;;;5031261;28;20028;-74
2021/09/28 08:21:26;;;;;;;6.57;2.17;;;13.90;99.90;;;;;;5031761;28;20485;-75
2021/09/28 08:23:51;;;;;;;8.10;2.63;;;13.90;99.90;;;;;;5029776;28;20022;-75
2021/09/28 08:29:11;;;;;;;10.00;3.15;;;14.00;99.90;;;;;;5031223;28;20361;-74
2021/09/28 08:31:43;;;;;;;7.65;2.70;;;14.00;99.90;;;;;;5030648;28;20382;-75
2021/09/28 08:34:10;;;;;;;10.45;2.65;;;14.00;99.90;;;;;;5032640;28;20040;-75
2021/09/28 08:36:36;;;;;;;7.82;3.10;;;14.10;99.90;;;;;;5035589;28;20044;-74
2021/09/28 08:39:05;;;;;;;8.65;3.15;;;14.10;99.90;;;;;;5035015;28;20056;-74
2021/09/28 08:41:31;;;;;;;7.95;3.17;;;14.10;99.90;;;;;;5035433;28;20462;-74
2021/09/28 08:43:57;;;;;;;8.43;2.58;;;14.20;99.90;;;;;;5034757;28;20021;-74
2021/09/28 08:46:25;;;;;;;12.57;2.80;;;14.20;99.90;;;;;;5035160;28;20095;-75
2021/09/28 08:48:51;;;;;;;12.07;3.63;;;14.30;99.90;;;;;;5034675;28;20018;-75
2021/09/28 08:51:17;;;;;;;7.43;2.65;;;14.30;99.90;;;;;;5035342;28;20499;-75
2021/09/28 08:53:43;;;;;;;4.80;2.20;;;14.40;99.90;;;;;;5035000;28;20100;-74
2021/09/28 08:56:11;;;;;;;5.97;2.13;;;14.40;99.90;;;;;;5033422;28;20367;-74
2021/09/28 08:58:56;;;;;;;8.77;2.72;;;14.50;99.80;;;;;;5035375;28;20028;-75
2021/09/28 09:01:22;;;;;;;6.30;3.03;;;14.50;99.80;;;;;;5033857;28;20045;-75
2021/09/28 09:03:48;;;;;;;8.45;2.85;;;14.50;99.70;;;;;;5033310;28;20024;-74
2021/09/28 09:06:14;;;;;;;7.93;2.63;;;14.60;99.70;;;;;;5034822;28;20104;-74
2021/09/28 09:08:41;;;;;;;9.98;3.17;;;14.60;99.70;;;;;;5034811;28;20049;-75
2021/09/28 09:11:14;;;;;;;16.33;3.40;;;14.70;99.60;;;;;;5033148;28;20075;-75
2021/09/28 09:13:43;;;;;;;6.60;2.80;;;14.70;99.70;;;;;;5034641;28;20201;-75
2021/09/28 09:16:13;;;;;;;13.45;3.00;;;14.70;99.60;;;;;;5034209;28;20068;-75
2021/09/28 09:18:40;;;;;;;7.57;2.45;;;14.80;99.60;;;;;;5034457;28;20480;-75
2021/09/28 09:21:07;;;;;;;7.20;2.47;;;14.90;99.60;;;;;;5033757;28;20030;-75
2021/09/28 09:23:36;;;;;;;14.15;3.00;;;14.90;99.60;;;;;;5034760;28;20521;-75
2021/09/28 09:26:01;;;;;;;7.47;2.50;;;15.00;99.60;;;;;;5032574;28;20125;-75
2021/09/28 09:28:32;;;;;;;8.15;2.85;;;15.00;99.60;;;;;;5034662;28;20033;-75
2021/09/28 09:31:37;;;;;;;7.17;2.70;;;15.00;99.60;;;;;;5032837;28;20025;-74
2021/09/28 09:34:13;;;;;;;6.55;2.20;;;15.10;99.60;;;;;;5033760;28;20264;-74
2021/09/28 09:36:39;;;;;;;7.80;2.10;;;15.10;99.50;;;;;;5034532;28;20025;-75
2021/09/28 09:39:09;;;;;;;6.60;2.00;;;15.20;99.50;;;;;;5032260;28;20128;-74
2021/09/28 09:41:36;;;;;;;3.78;1.73;;;15.20;99.50;;;;;;5034270;28;20030;-74
2021/09/28 09:44:09;;;;;;;6.03;2.72;;;15.30;99.40;;;;;;5033097;28;20116;-74
2021/09/28 09:46:49;;;;;;;7.93;2.20;;;15.30;99.30;;;;;;5034240;28;20021;-74
2021/09/28 09:49:21;;;;;;;5.55;1.63;;;15.40;99.40;;;;;;5033042;28;20022;-74
2021/09/28 09:51:52;;;;;;;4.28;2.20;;;15.40;99.40;;;;;;5033039;28;20029;-75
2021/09/28 09:54:30;;;;;;;11.95;2.65;;;15.40;99.20;;;;;;5033064;28;20386;-75
2021/09/28 09:56:57;;;;;;;10.00;2.90;;;15.50;99.20;;;;;;5032164;28;20382;-75
2021/09/28 09:59:24;;;;;;;6.07;1.98;;;15.50;99.10;;;;;;5032812;28;20025;-75
2021/09/28 10:01:51;;;;;;;7.68;2.33;;;15.50;99.10;;;;;;5034018;28;20029;-74
2021/09/28 10:04:22;;;;;;;4.43;1.65;;;15.60;99.20;;;;;;5033920;28;20017;-75
2021/09/28 10:06:48;;;;;;;6.25;1.60;;;15.60;99.10;;;;;;5034516;28;20102;-75
2021/09/28 10:09:29;;;;;;;7.32;2.47;;;15.60;99.10;;;;;;5033345;28;20026;-74
2021/09/28 10:12:00;;;;;;;10.38;1.90;;;15.70;99.10;;;;;;5033204;28;20025;-74
2021/09/28 10:14:31;;;;;;;7.00;2.00;;;15.70;99.00;;;;;;5034183;28;20025;-75
2021/09/28 10:16:59;;;;;;;5.88;2.20;;;15.70;99.00;;;;;;5033232;28;20014;-75
2021/09/28 10:19:28;;;;;;;8.85;1.80;;;15.80;99.00;;;;;;5033355;28;20378;-75
2021/09/28 10:21:58;;;;;;;7.70;1.70;;;15.80;99.00;;;;;;5033253;28;20025;-75
2021/09/28 10:24:27;;;;;;;4.45;1.40;;;15.90;98.90;;;;;;5033889;28;20022;-75
2021/09/28 10:26:56;;;;;;;5.47;1.67;;;16.00;98.70;;;;;;5033242;28;20064;-75
2021/09/28 10:29:41;;;;;;;5.93;1.50;;;16.00;98.50;;;;;;5032249;28;20481;-75
2021/09/28 10:32:25;;;;;;;6.50;1.73;;;16.10;98.50;;;;;;5032888;28;20025;-75
2021/09/28 10:35:12;;;;;;;8.57;1.80;;;16.20;98.50;;;;;;5031867;28;20120;-75
2021/09/28 10:37:50;;;;;;;3.83;1.55;;;16.20;98.40;;;;;;5033202;28;20047;-75
2021/09/28 10:40:19;;;;;;;3.95;1.48;;;16.30;98.10;;;;;;5031151;28;20087;-75
2021/09/28 10:43:01;;;;;;;8.90;1.73;;;16.40;98.00;;;;;;5033537;28;20021;-75
2021/09/28 10:45:29;;;;;;;4.38;1.13;;;16.40;97.90;;;;;;5033179;28;20041;-75
2021/09/28 10:47:56;;;;;;;6.40;1.48;;;16.50;97.90;;;;;;5031184;28;20032;-73
2021/09/28 10:50:22;;;;;;;4.47;1.65;;;16.50;97.60;;;;;;5031719;28;20037;-75
2021/09/28 10:52:49;;;;;;;8.00;1.50;;;16.50;97.70;;;;;;5031739;28;20021;-74
2021/09/28 10:55:22;;;;;;;2.22;1.02;;;16.60;97.80;;;;;;5031936;28;20216;-74
2021/09/28 10:57:58;;;;;;;4.53;1.58;;;16.70;97.60;;;;;;5032939;28;20146;-75
2021/09/28 11:00:30;;;;;;;6.97;1.45;;;16.70;97.30;;;;;;5032435;28;20420;-75
2021/09/28 11:03:00;;;;;;;5.43;1.63;;;16.80;97.20;;;;;;5032321;28;20046;-75
2021/09/28 11:05:31;;;;;;;6.37;1.83;;;16.80;96.90;;;;;;5032892;28;20089;-75
2021/09/28 11:07:57;;;;;;;;;;;16.70;96.50;;;;;;5032590;28;20260;-75
2021/09/28 11:10:23;;;;;;;7.35;1.30;;;16.80;96.50;;;;;;5032755;28;19905;-75
2021/09/28 11:12:49;;;;;;;6.57;1.58;;;16.80;96.10;;;;;;5032565;28;20072;-75
2021/09/28 11:15:23;;;;;;;6.68;1.17;;;16.90;96.20;;;;;;5031763;28;20413;-75
2021/09/28 11:17:48;;;;;;;8.85;1.50;;;17.00;96.20;;;;;;5032699;28;20040;-75
2021/09/28 11:20:25;;;;;;;6.15;1.20;;;17.20;96.00;;;;;;5030340;28;20112;-75
2021/09/28 11:22:55;;;;;;;5.35;1.20;;;17.30;95.90;;;;;;5031406;28;20051;-75
2021/09/28 11:25:21;;;;;;;10.88;1.27;;;17.40;95.90;;;;;;5031927;28;20478;-75
2021/09/28 11:28:07;;;;;;;5.30;1.27;;;17.50;95.30;;;;;;5031272;28;20033;-75
2021/09/28 11:30:35;;;;;;;7.32;1.30;;;17.50;94.80;;;;;;5031298;28;20124;-75
2021/09/28 11:33:02;;;;;;;3.88;1.10;;;17.60;95.00;;;;;;5031866;28;20478;-75
2021/09/28 11:35:28;;;;;;;4.13;0.93;;;17.70;94.70;;;;;;5032300;28;20049;-74
2021/09/28 11:37:55;;;;;;;4.82;1.38;;;17.70;94.60;;;;;;5031134;28;20435;-74
2021/09/28 11:40:21;;;;;;;4.18;0.95;;;17.80;94.60;;;;;;5031125;28;20057;-74
2021/09/28 11:42:47;;;;;;;4.72;1.00;;;17.90;94.50;;;;;;5032317;28;20021;-74
2021/09/28 11:45:12;;;;;;;4.30;0.93;;;17.90;94.20;;;;;;5030306;28;20408;-73
2021/09/28 11:47:41;;;;;;;4.93;0.93;;;18.10;94.20;;;;;;5031032;28;20101;-74
2021/09/28 11:50:07;;;;;;;5.93;1.17;;;18.10;94.00;;;;;;5031537;28;20068;-74
2021/09/28 11:52:36;;;;;;;3.25;1.23;;;18.20;93.90;;;;;;5032072;28;20021;-74
2021/09/28 11:55:02;;;;;;;4.63;1.17;;;18.30;93.70;;;;;;5029881;28;20021;-75
2021/09/28 11:57:30;;;;;;;5.82;1.33;;;18.40;93.70;;;;;;5032092;28;20025;-75
2021/09/28 12:00:00;;;;;;;4.20;1.25;;;18.40;93.70;;;;;;5031848;28;20025;-75
2021/09/28 12:02:32;;;;;;;5.10;1.02;;;18.50;93.70;;;;;;5030764;28;20025;-75
2021/09/28 12:10:11;;;;;;;5.67;1.20;;;18.60;93.30;;;;;;5031256;28;20381;-75
2021/09/28 12:12:39;;;;;;;2.63;0.73;;;18.60;93.10;;;;;;5030739;28;20478;-74
2021/09/28 12:15:08;;;;;;;5.10;1.15;;;18.60;93.10;;;;;;5031303;28;20521;-74
2021/09/28 12:17:38;;;;;;;3.97;0.90;;;18.60;92.90;;;;;;5030617;28;20025;-74
2021/09/28 12:20:14;;;;;;;4.95;0.82;;;18.50;92.70;;;;;;5029880;28;20026;-74
2021/09/28 12:23:01;;;;;;;3.95;0.80;;;18.60;92.50;;;;;;5030630;28;20029;-75
2021/09/28 12:25:32;;;;;;;7.40;1.52;;;18.50;92.30;;;;;;5030787;28;20029;-74
2021/09/28 12:27:59;;;;;;;3.30;1.13;;;18.50;91.90;;;;;;5030717;28;20084;-75
2021/09/28 12:30:30;;;;;;;5.82;0.80;;;18.50;92.30;;;;;;5031269;28;20056;-75
2021/09/28 12:32:57;;;;;;;4.93;0.85;;;18.50;91.70;;;;;;5031676;28;20022;-74
2021/09/28 12:35:31;;;;;;;6.20;1.10;;;18.60;91.50;;;;;;5031398;28;20492;-74
2021/09/28 12:38:01;;;;;;;1.48;0.63;;;18.60;91.30;;;;;;5031738;28;20423;-74
2021/09/28 12:40:30;;;;;;;2.85;0.70;;;18.50;91.40;;;;;;5031000;28;20049;-75
2021/09/28 12:43:05;;;;;;;3.13;0.60;;;18.50;91.20;;;;;;5031543;28;20029;-75
2021/09/28 12:45:44;;;;;;;2.58;0.73;;;18.50;91.20;;;;;;5030495;28;20117;-75
2021/09/28 12:48:11;;;;;;;4.32;0.80;;;18.50;91.00;;;;;;5030877;28;20120;-74
2021/09/28 12:50:39;;;;;;;4.03;1.10;;;18.60;90.80;;;;;;5030320;28;20032;-75
2021/09/28 12:53:06;;;;;;;5.80;1.00;;;18.60;90.90;;;;;;5029645;28;20029;-75
2021/09/28 12:55:37;;;;;;;3.97;1.08;;;18.70;90.60;;;;;;5031500;28;20462;-74